Time;durP1;ratioP1;P1;durP2;ratioP2;P2;SDS_P1;SDS_P2;PMS_P1;PMS_P2;Temp;Humidity;BMP_temperature;BMP_pressure;BME280_temperature;BME280_humidity;BME280_pressure;Samples;Min_cycle;Max_cycle;Signal;HPM_P1;HPM_P2
2022/06/11 00:02:39;;;;;;;2.72;1.42;;;;;;;;;;8356023;28;20040;-61
2022/06/11 00:06:41;;;;;;;6.30;1.33;;;;;;;;;;8358573;28;20073;-61
2022/06/11 00:10:42;;;;;;;3.47;1.20;;;;;;;;;;8357323;28;21070;-62
2022/06/11 00:14:43;;;;;;;4.68;1.50;;;;;;;;;;8357076;28;20021;-61
2022/06/11 00:18:44;;;;;;;4.50;1.42;;;;;;;;;;8358173;28;20040;-61
2022/06/11 00:22:44;;;;;;;2.58;1.20;;;;;;;;;;8358262;28;20062;-61
2022/06/11 00:26:46;;;;;;;4.28;1.40;;;;;;;;;;8359076;28;20371;-62
2022/06/11 00:30:47;;;;;;;2.22;1.23;;;;;;;;;;8355788;28;20779;-62
2022/06/11 00:34:47;;;;;;;3.38;1.40;;;;;;;;;;8361280;28;20068;-61
2022/06/11 00:38:48;;;;;;;5.60;1.20;;;;;;;;;;8358601;28;20044;-61
2022/06/11 00:42:48;;;;;;;3.78;1.20;;;;;;;;;;8359036;28;20931;-61
2022/06/11 00:46:55;;;;;;;2.45;1.08;;;;;;;;;;8355005;28;20088;-61
2022/06/11 00:50:58;;;;;;;3.38;1.35;;;;;;;;;;8357374;28;20869;-61
2022/06/11 00:55:01;;;;;;;3.60;1.30;;;;;;;;;;8358392;28;20025;-61
2022/06/11 00:59:02;;;;;;;2.80;1.30;;;;;;;;;;8355962;28;20494;-61
2022/06/11 01:03:03;;;;;;;2.05;1.33;;;;;;;;;;8354749;28;20036;-61
2022/06/11 01:07:23;;;;;;;2.45;1.30;;;;;;;;;;8355138;28;20107;-62
2022/06/11 01:11:23;;;;;;;2.28;1.08;;;;;;;;;;8352025;28;20036;-61
2022/06/11 01:15:33;;;;;;;3.58;1.40;;;;;;;;;;8354703;28;20120;-61
2022/06/11 01:19:43;;;;;;;2.30;1.20;;;;;;;;;;8356140;28;20059;-61
2022/06/11 01:24:00;;;;;;;2.67;1.30;;;;;;;;;;8353743;28;20518;-62
2022/06/11 01:28:19;;;;;;;2.40;1.05;;;;;;;;;;8356626;28;20126;-61
2022/06/11 01:32:22;;;;;;;2.13;1.15;;;;;;;;;;8354253;28;20416;-61
2022/06/11 01:36:32;;;;;;;2.92;1.20;;;;;;;;;;8356602;28;20028;-61
2022/06/11 01:40:47;;;;;;;2.05;1.08;;;;;;;;;;8354644;28;20032;-62
2022/06/11 01:44:57;;;;;;;3.15;1.15;;;;;;;;;;8357137;28;20083;-62
2022/06/11 01:48:59;;;;;;;4.15;1.25;;;;;;;;;;8356027;28;20553;-61
2022/06/11 01:53:05;;;;;;;4.07;1.23;;;;;;;;;;8353804;28;20446;-61
2022/06/11 01:57:25;;;;;;;3.88;1.50;;;;;;;;;;8354930;28;20436;-61
2022/06/11 02:01:38;;;;;;;4.40;1.60;;;;;;;;;;8354225;28;20100;-61
2022/06/11 02:05:44;;;;;;;1.77;1.02;;;;;;;;;;8356895;28;20024;-61
2022/06/11 02:10:03;;;;;;;4.28;1.50;;;;;;;;;;8354311;28;20846;-62
2022/06/11 02:14:06;;;;;;;1.20;0.90;;;;;;;;;;8353033;28;20021;-61
2022/06/11 02:18:09;;;;;;;2.43;1.17;;;;;;;;;;8355686;28;20048;-61
2022/06/11 02:22:13;;;;;;;4.35;1.20;;;;;;;;;;8352200;28;20051;-62
2022/06/11 02:26:22;;;;;;;2.35;1.20;;;;;;;;;;8355582;28;21030;-62
2022/06/11 02:30:25;;;;;;;4.32;1.23;;;;;;;;;;8351754;28;20103;-61
2022/06/11 02:34:26;;;;;;;2.70;1.23;;;;;;;;;;8354992;28;20592;-62
2022/06/11 02:38:27;;;;;;;2.10;1.00;;;;;;;;;;8353153;28;20447;-61
2022/06/11 02:42:28;;;;;;;2.80;1.25;;;;;;;;;;8354560;28;20029;-61
2022/06/11 02:46:44;;;;;;;3.35;1.30;;;;;;;;;;8353744;28;20898;-61
2022/06/11 02:50:46;;;;;;;1.70;1.30;;;;;;;;;;8354388;28;20032;-60
2022/06/11 02:54:49;;;;;;;3.60;1.30;;;;;;;;;;8352707;28;20017;-62
2022/06/11 02:58:49;;;;;;;2.30;1.10;;;;;;;;;;8354740;28;20060;-61
2022/06/11 03:02:50;;;;;;;2.47;1.27;;;;;;;;;;8355546;28;20048;-61
2022/06/11 03:06:51;;;;;;;1.88;0.95;;;;;;;;;;8356898;28;20035;-61
2022/06/11 03:10:54;;;;;;;2.45;1.10;;;;;;;;;;8354384;28;20115;-61
2022/06/11 03:14:54;;;;;;;3.03;1.17;;;;;;;;;;8354276;28;20025;-62
2022/06/11 03:18:55;;;;;;;2.10;1.25;;;;;;;;;;8353841;28;20086;-62
2022/06/11 03:22:55;;;;;;;3.43;1.40;;;;;;;;;;8354431;28;20033;-61
2022/06/11 03:26:56;;;;;;;2.13;1.10;;;;;;;;;;8359726;28;20278;-61
2022/06/11 03:30:56;;;;;;;1.40;0.80;;;;;;;;;;8359616;28;20067;-61
2022/06/11 03:34:57;;;;;;;3.35;1.08;;;;;;;;;;8360645;28;20056;-61
2022/06/11 03:38:57;;;;;;;4.20;1.35;;;;;;;;;;8357440;28;20078;-61
2022/06/11 03:42:57;;;;;;;2.97;1.17;;;;;;;;;;8360598;28;20032;-61
2022/06/11 03:46:57;;;;;;;2.92;1.20;;;;;;;;;;8359051;28;20109;-61
2022/06/11 03:50:59;;;;;;;2.75;1.20;;;;;;;;;;8358416;28;20025;-62
2022/06/11 03:55:01;;;;;;;2.92;1.23;;;;;;;;;;8359644;28;20016;-62
2022/06/11 03:59:01;;;;;;;5.05;1.30;;;;;;;;;;8359449;28;20016;-61
2022/06/11 04:03:01;;;;;;;5.78;1.48;;;;;;;;;;8358034;28;20075;-61
2022/06/11 04:07:02;;;;;;;3.17;1.20;;;;;;;;;;8360760;28;20028;-61
2022/06/11 04:11:03;;;;;;;2.92;1.17;;;;;;;;;;8355760;28;20040;-61
2022/06/11 04:15:03;;;;;;;3.45;1.30;;;;;;;;;;8359697;28;20511;-61
2022/06/11 04:19:05;;;;;;;2.42;1.40;;;;;;;;;;8359493;28;20040;-61
2022/06/11 04:23:05;;;;;;;3.88;1.20;;;;;;;;;;8355628;28;20035;-61
2022/06/11 04:27:06;;;;;;;3.00;1.38;;;;;;;;;;8359190;28;20024;-61
2022/06/11 04:31:08;;;;;;;3.10;1.20;;;;;;;;;;8358026;28;20478;-62
2022/06/11 04:35:08;;;;;;;4.20;1.33;;;;;;;;;;8357587;28;20081;-62
2022/06/11 04:39:09;;;;;;;4.35;1.30;;;;;;;;;;8357578;28;20028;-61
2022/06/11 04:43:09;;;;;;;3.58;0.98;;;;;;;;;;8356448;28;20207;-61
2022/06/11 04:47:11;;;;;;;2.63;1.05;;;;;;;;;;8356241;28;20041;-61
2022/06/11 04:51:11;;;;;;;2.08;1.20;;;;;;;;;;8354963;28;20038;-61
2022/06/11 04:55:13;;;;;;;1.97;1.00;;;;;;;;;;8357259;28;20064;-61
2022/06/11 04:59:13;;;;;;;2.55;1.02;;;;;;;;;;8355745;28;20035;-61
2022/06/11 05:03:14;;;;;;;3.53;1.10;;;;;;;;;;8355475;28;20106;-61
2022/06/11 05:07:14;;;;;;;3.90;1.03;;;;;;;;;;8354943;28;20275;-61
2022/06/11 05:11:14;;;;;;;1.88;1.00;;;;;;;;;;8355747;28;20032;-62
2022/06/11 05:15:14;;;;;;;4.93;1.42;;;;;;;;;;8354016;28;20027;-61
2022/06/11 05:19:18;;;;;;;3.13;1.25;;;;;;;;;;8357952;28;20541;-61
2022/06/11 05:23:18;;;;;;;2.97;1.30;;;;;;;;;;8356309;28;20052;-61
2022/06/11 05:27:20;;;;;;;5.20;1.30;;;;;;;;;;8352954;28;20032;-61
2022/06/11 05:31:20;;;;;;;3.22;1.40;;;;;;;;;;8355175;28;20913;-62
2022/06/11 05:35:21;;;;;;;4.68;1.20;;;;;;;;;;8354991;28;20029;-61
2022/06/11 05:39:22;;;;;;;5.05;1.30;;;;;;;;;;8353871;28;20032;-61
2022/06/11 05:43:23;;;;;;;2.67;1.05;;;;;;;;;;8355511;28;20477;-61
2022/06/11 05:47:24;;;;;;;2.53;1.33;;;;;;;;;;8356086;28;20118;-61
2022/06/11 05:51:30;;;;;;;2.13;1.17;;;;;;;;;;8354436;28;20129;-61
2022/06/11 05:55:32;;;;;;;4.18;1.42;;;;;;;;;;8354166;28;20035;-61
2022/06/11 05:59:35;;;;;;;5.47;1.35;;;;;;;;;;8352213;28;20033;-61
2022/06/11 06:03:35;;;;;;;2.23;1.20;;;;;;;;;;8354236;28;20127;-61
2022/06/11 06:07:35;;;;;;;2.95;1.23;;;;;;;;;;8355005;28;20780;-61
2022/06/11 06:11:35;;;;;;;1.73;0.93;;;;;;;;;;8352474;28;20025;-61
2022/06/11 06:15:35;;;;;;;2.53;1.20;;;;;;;;;;8351640;28;20036;-60
2022/06/11 06:19:36;;;;;;;2.88;1.02;;;;;;;;;;8356390;28;20032;-60
2022/06/11 06:23:36;;;;;;;1.88;0.95;;;;;;;;;;8349049;28;20504;-61
2022/06/11 06:27:36;;;;;;;2.47;1.10;;;;;;;;;;8353240;28;20040;-61
2022/06/11 06:31:37;;;;;;;1.77;0.82;;;;;;;;;;8353094;28;20048;-61
2022/06/11 06:35:37;;;;;;;1.45;0.82;;;;;;;;;;8353267;28;20039;-61
2022/06/11 06:39:38;;;;;;;2.25;0.82;;;;;;;;;;8354445;28;20028;-61
2022/06/11 06:43:38;;;;;;;5.63;1.70;;;;;;;;;;8353541;28;20021;-61
2022/06/11 06:47:38;;;;;;;5.83;2.30;;;;;;;;;;8352981;28;20033;-61
2022/06/11 06:51:38;;;;;;;2.42;1.90;;;;;;;;;;8355544;28;20451;-61
2022/06/11 06:55:39;;;;;;;2.40;1.60;;;;;;;;;;8352505;28;20032;-61
2022/06/11 06:59:39;;;;;;;7.60;1.80;;;;;;;;;;8356791;28;20028;-61
2022/06/11 07:03:40;;;;;;;5.05;1.70;;;;;;;;;;8360680;28;20033;-61
2022/06/11 07:07:40;;;;;;;5.13;1.50;;;;;;;;;;8360345;28;20247;-61
2022/06/11 07:11:41;;;;;;;3.67;1.70;;;;;;;;;;8361157;28;20384;-62
2022/06/11 07:15:41;;;;;;;3.80;1.50;;;;;;;;;;8359424;28;20401;-61
2022/06/11 07:19:45;;;;;;;5.82;1.67;;;;;;;;;;8358820;28;20035;-61
2022/06/11 07:23:48;;;;;;;3.45;1.40;;;;;;;;;;8357978;28;20112;-62
2022/06/11 07:27:51;;;;;;;4.82;1.42;;;;;;;;;;8360055;28;20806;-62
2022/06/11 07:31:53;;;;;;;1.55;1.20;;;;;;;;;;8358610;28;20458;-61
2022/06/11 07:35:54;;;;;;;3.22;1.10;;;;;;;;;;8360093;28;20893;-61
2022/06/11 07:39:54;;;;;;;3.40;1.00;;;;;;;;;;8358030;28;20024;-61
2022/06/11 07:43:55;;;;;;;3.13;1.08;;;;;;;;;;8357098;28;20048;-61
2022/06/11 07:47:55;;;;;;;1.63;0.85;;;;;;;;;;8357667;28;20173;-61
2022/06/11 07:51:56;;;;;;;0.90;0.90;;;;;;;;;;8355708;28;21387;-61
2022/06/11 07:55:56;;;;;;;2.42;1.13;;;;;;;;;;8359121;28;20281;-61
2022/06/11 07:59:57;;;;;;;1.85;0.80;;;;;;;;;;8355455;28;20105;-61
2022/06/11 08:03:58;;;;;;;2.20;0.93;;;;;;;;;;8356706;28;20344;-61
2022/06/11 08:07:58;;;;;;;2.67;1.00;;;;;;;;;;8356877;28;20143;-61
2022/06/11 08:11:58;;;;;;;2.58;1.00;;;;;;;;;;8353434;28;20099;-61
2022/06/11 08:15:59;;;;;;;2.20;0.80;;;;;;;;;;8357728;28;20033;-61
2022/06/11 08:20:00;;;;;;;1.88;0.90;;;;;;;;;;8357468;28;20522;-62
2022/06/11 08:24:00;;;;;;;1.85;0.80;;;;;;;;;;8354930;28;21006;-61
2022/06/11 08:28:00;;;;;;;2.10;0.82;;;;;;;;;;8358639;28;20016;-62
2022/06/11 08:32:01;;;;;;;1.80;1.10;;;;;;;;;;8351519;28;20049;-62
2022/06/11 08:36:02;;;;;;;1.58;0.88;;;;;;;;;;8355296;28;20024;-62
2022/06/11 08:40:04;;;;;;;2.30;0.90;;;;;;;;;;8356747;28;20048;-62
2022/06/11 08:44:08;;;;;;;1.38;1.00;;;;;;;;;;8358126;28;20455;-62
2022/06/11 08:48:15;;;;;;;4.18;1.00;;;;;;;;;;8355777;28;20040;-62
2022/06/11 08:52:17;;;;;;;1.55;0.85;;;;;;;;;;8355644;28;20075;-62
2022/06/11 08:56:24;;;;;;;5.25;1.00;;;;;;;;;;8356678;28;20383;-61
2022/06/11 09:00:28;;;;;;;2.50;0.80;;;;;;;;;;8358222;28;20056;-62
2022/06/11 09:04:28;;;;;;;1.83;0.90;;;;;;;;;;8357952;28;20035;-62
2022/06/11 09:08:47;;;;;;;2.08;1.00;;;;;;;;;;8356161;28;20024;-62
2022/06/11 09:12:50;;;;;;;1.67;0.90;;;;;;;;;;8356669;28;20055;-61
2022/06/11 09:17:08;;;;;;;2.70;1.00;;;;;;;;;;8355416;28;20040;-62
2022/06/11 09:21:11;;;;;;;3.28;1.23;;;;;;;;;;8354985;28;20021;-61
2022/06/11 09:25:23;;;;;;;3.05;0.93;;;;;;;;;;8355849;28;20035;-62
2022/06/11 09:29:36;;;;;;;2.53;0.90;;;;;;;;;;8353445;28;20024;-62
2022/06/11 09:34:15;;;;;;;1.42;1.00;;;;;;;;;;8353312;28;20131;-61
2022/06/11 09:38:25;;;;;;;2.08;0.93;;;;;;;;;;8288184;28;20893;-62
2022/06/11 09:42:25;;;;;;;4.20;0.90;;;;;;;;;;8321746;28;20097;-61
2022/06/11 09:46:33;;;;;;;2.20;1.00;;;;;;;;;;8352699;28;20269;-62
2022/06/11 09:50:39;;;;;;;3.83;0.95;;;;;;;;;;8353384;28;20028;-62
2022/06/11 09:54:40;;;;;;;2.03;0.85;;;;;;;;;;8355067;28;20538;-61
2022/06/11 09:59:03;;;;;;;1.13;0.90;;;;;;;;;;8353560;28;20111;-62
2022/06/11 10:03:11;;;;;;;3.20;1.20;;;;;;;;;;8345401;28;20489;-62
2022/06/11 10:07:15;;;;;;;1.92;0.90;;;;;;;;;;8351611;28;20119;-61
2022/06/11 10:11:24;;;;;;;3.17;1.10;;;;;;;;;;8353737;28;20028;-61
2022/06/11 10:15:35;;;;;;;2.88;1.00;;;;;;;;;;8352768;28;20048;-61
2022/06/11 10:19:54;;;;;;;1.48;0.90;;;;;;;;;;8354546;28;20115;-61
2022/06/11 10:23:58;;;;;;;2.78;1.40;;;;;;;;;;8353549;28;20863;-62
2022/06/11 10:28:17;;;;;;;2.58;1.17;;;;;;;;;;8352123;28;20273;-61
2022/06/11 10:32:22;;;;;;;2.33;0.75;;;;;;;;;;8352191;28;20051;-61
2022/06/11 10:36:23;;;;;;;1.45;1.00;;;;;;;;;;8353331;28;20043;-62
2022/06/11 10:40:23;;;;;;;1.67;1.00;;;;;;;;;;8353139;28;20029;-62
2022/06/11 10:44:35;;;;;;;1.13;0.93;;;;;;;;;;8351223;28;20039;-61
2022/06/11 10:48:37;;;;;;;3.08;0.93;;;;;;;;;;8351258;28;20516;-62
2022/06/11 10:52:55;;;;;;;1.53;0.90;;;;;;;;;;8353808;28;20102;-61
2022/06/11 10:56:58;;;;;;;2.05;1.00;;;;;;;;;;8350429;28;20161;-61
2022/06/11 11:01:01;;;;;;;3.60;1.08;;;;;;;;;;8353895;28;20373;-61
2022/06/11 11:05:04;;;;;;;3.58;1.08;;;;;;;;;;8354789;28;20093;-61
2022/06/11 11:09:06;;;;;;;2.28;0.85;;;;;;;;;;8353421;28;20438;-61
2022/06/11 11:13:13;;;;;;;1.63;0.90;;;;;;;;;;8352661;28;20024;-61
2022/06/11 11:17:14;;;;;;;1.95;0.98;;;;;;;;;;8352810;28;20041;-61
2022/06/11 11:21:15;;;;;;;2.13;1.38;;;;;;;;;;8353449;28;20028;-61
2022/06/11 11:25:17;;;;;;;2.40;1.10;;;;;;;;;;8353788;28;20036;-61
2022/06/11 11:29:17;;;;;;;;;;;;;;;;;;8352976;28;20093;-61
2022/06/11 11:33:26;;;;;;;1.88;0.80;;;;;;;;;;8351573;28;19974;-61
2022/06/11 11:37:31;;;;;;;1.67;1.02;;;;;;;;;;8352395;28;20029;-61
2022/06/11 11:41:32;;;;;;;1.35;0.88;;;;;;;;;;8351274;28;20028;-61
2022/06/11 11:45:55;;;;;;;1.58;1.02;;;;;;;;;;8355701;28;20043;-61
2022/06/11 11:50:06;;;;;;;0.95;0.77;;;;;;;;;;8359300;28;20033;-61
2022/06/11 11:54:13;;;;;;;2.10;1.00;;;;;;;;;;8358399;28;20389;-61
2022/06/11 11:58:17;;;;;;;3.20;0.93;;;;;;;;;;8357543;28;20441;-61
2022/06/11 12:02:36;;;;;;;2.28;0.90;;;;;;;;;;8357534;28;20029;-61
2022/06/11 12:06:45;;;;;;;1.30;0.82;;;;;;;;;;8359392;28;20035;-61
2022/06/11 12:10:47;;;;;;;1.95;0.90;;;;;;;;;;8358863;28;20446;-62
2022/06/11 12:15:10;;;;;;;1.23;0.80;;;;;;;;;;8356190;28;20025;-61
2022/06/11 12:19:17;;;;;;;2.63;1.02;;;;;;;;;;8348465;28;20056;-61
2022/06/11 12:23:21;;;;;;;1.48;0.80;;;;;;;;;;8357664;28;20024;-61
2022/06/11 12:27:31;;;;;;;1.00;0.80;;;;;;;;;;8355971;28;20027;-62
2022/06/11 12:31:32;;;;;;;2.42;1.00;;;;;;;;;;8355519;28;21071;-61
2022/06/11 12:35:41;;;;;;;1.87;1.00;;;;;;;;;;8357205;28;20167;-61
2022/06/11 12:39:49;;;;;;;2.22;0.90;;;;;;;;;;8358613;28;20021;-61
2022/06/11 12:43:50;;;;;;;3.20;0.80;;;;;;;;;;8356444;28;20024;-61
2022/06/11 12:48:05;;;;;;;1.70;0.90;;;;;;;;;;8354381;28;20646;-61
2022/06/11 12:52:08;;;;;;;2.25;1.10;;;;;;;;;;8356336;28;20024;-61
2022/06/11 12:56:25;;;;;;;2.38;1.00;;;;;;;;;;8353554;28;20900;-61
2022/06/11 13:00:26;;;;;;;1.25;1.00;;;;;;;;;;8353044;28;20592;-61
2022/06/11 13:05:04;;;;;;;2.20;1.30;;;;;;;;;;8354087;28;20024;-61
2022/06/11 13:09:07;;;;;;;1.58;0.90;;;;;;;;;;8255677;28;21031;-61
2022/06/11 13:13:23;;;;;;;2.55;1.05;;;;;;;;;;8303709;28;20577;-61
2022/06/11 13:17:35;;;;;;;1.13;0.82;;;;;;;;;;8353984;28;20032;-61
2022/06/11 13:21:35;;;;;;;2.42;1.00;;;;;;;;;;8353507;28;20039;-62
2022/06/11 13:25:35;;;;;;;1.83;1.00;;;;;;;;;;8355035;28;20297;-61
2022/06/11 13:29:54;;;;;;;1.70;0.90;;;;;;;;;;8356550;28;20031;-61
2022/06/11 13:34:33;;;;;;;1.60;0.95;;;;;;;;;;8354811;28;20786;-61
2022/06/11 13:38:36;;;;;;;2.63;1.00;;;;;;;;;;8257042;28;20075;-61
2022/06/11 13:42:39;;;;;;;2.03;0.98;;;;;;;;;;8301374;28;20135;-61
2022/06/11 13:46:48;;;;;;;1.92;0.80;;;;;;;;;;8354207;28;20116;-61
2022/06/11 13:50:56;;;;;;;1.92;1.00;;;;;;;;;;8354965;28;20375;-62
2022/06/11 13:55:11;;;;;;;2.50;0.90;;;;;;;;;;8352189;28;22112;-61
2022/06/11 13:59:35;;;;;;;1.73;0.90;;;;;;;;;;8353546;28;20402;-62
2022/06/11 14:03:40;;;;;;;0.95;0.70;;;;;;;;;;8349053;28;20044;-61
2022/06/11 14:07:41;;;;;;;1.35;0.70;;;;;;;;;;8354504;28;20020;-62
2022/06/11 14:11:43;;;;;;;1.27;0.88;;;;;;;;;;8354158;28;20532;-61
2022/06/11 14:15:48;;;;;;;1.70;0.90;;;;;;;;;;8354724;28;20093;-61
2022/06/11 14:19:48;;;;;;;1.40;0.93;;;;;;;;;;8355572;28;20131;-61
2022/06/11 14:23:51;;;;;;;2.85;1.23;;;;;;;;;;8352912;28;20492;-61
2022/06/11 14:27:51;;;;;;;1.85;0.88;;;;;;;;;;8353210;28;20025;-62
2022/06/11 14:31:57;;;;;;;3.25;1.15;;;;;;;;;;8350934;28;20080;-62
2022/06/11 14:36:00;;;;;;;1.50;1.00;;;;;;;;;;8352943;28;20033;-62
2022/06/11 14:40:03;;;;;;;2.15;1.10;;;;;;;;;;8352037;28;20027;-61
2022/06/11 14:44:04;;;;;;;1.38;1.00;;;;;;;;;;8356237;28;20017;-61
2022/06/11 14:48:09;;;;;;;1.63;1.05;;;;;;;;;;8351634;28;20086;-62
2022/06/11 14:52:15;;;;;;;1.63;1.10;;;;;;;;;;8354686;28;20031;-62
2022/06/11 14:56:47;;;;;;;2.22;0.85;;;;;;;;;;8355069;28;20222;-61
2022/06/11 15:00:53;;;;;;;3.35;1.10;;;;;;;;;;8319470;28;20028;-61
2022/06/11 15:04:58;;;;;;;2.67;1.30;;;;;;;;;;8351874;28;20542;-61
2022/06/11 15:09:01;;;;;;;2.80;1.10;;;;;;;;;;8351303;28;20021;-62
2022/06/11 15:13:01;;;;;;;1.75;1.05;;;;;;;;;;8353935;28;20036;-61
2022/06/11 15:17:02;;;;;;;2.25;1.00;;;;;;;;;;8352792;28;21011;-61
2022/06/11 15:21:04;;;;;;;2.87;1.20;;;;;;;;;;8356106;28;20078;-61
2022/06/11 15:25:04;;;;;;;;;;;;;;;;;;8359853;28;21178;-61
2022/06/11 15:29:10;;;;;;;1.67;0.93;;;;;;;;;;8359125;28;19912;-61
2022/06/11 15:33:13;;;;;;;1.40;0.98;;;;;;;;;;8357039;28;20059;-62
2022/06/11 15:37:16;;;;;;;2.30;0.90;;;;;;;;;;8353769;28;20084;-62
2022/06/11 15:41:22;;;;;;;1.00;0.80;;;;;;;;;;8354055;28;20726;-62
2022/06/11 15:45:30;;;;;;;3.38;0.88;;;;;;;;;;8352993;28;20574;-61
2022/06/11 15:49:36;;;;;;;2.20;1.20;;;;;;;;;;8354491;28;20028;-61
2022/06/11 15:57:56;;;;;;;3.10;1.00;;;;;;;;;;8353115;28;20221;-61
2022/06/11 16:01:59;;;;;;;1.45;1.00;;;;;;;;;;8352440;28;20033;-62
2022/06/11 16:06:01;;;;;;;5.97;1.10;;;;;;;;;;8353549;28;20385;-62
2022/06/11 16:10:01;;;;;;;1.05;1.00;;;;;;;;;;8353900;28;20024;-62
2022/06/11 16:14:04;;;;;;;1.37;0.93;;;;;;;;;;8355341;28;20136;-61
2022/06/11 16:18:24;;;;;;;1.27;1.08;;;;;;;;;;8353389;28;20139;-61
2022/06/11 16:22:26;;;;;;;1.10;1.00;;;;;;;;;;8352342;28;21032;-62
2022/06/11 16:26:28;;;;;;;2.20;0.98;;;;;;;;;;8353919;28;20067;-62
2022/06/11 16:30:33;;;;;;;4.93;1.50;;;;;;;;;;8351086;28;20123;-64
2022/06/11 16:34:33;;;;;;;1.95;1.30;;;;;;;;;;8352417;28;20024;-62
2022/06/11 16:38:38;;;;;;;2.45;1.30;;;;;;;;;;8351424;28;20383;-61
2022/06/11 16:42:47;;;;;;;1.92;1.10;;;;;;;;;;8353972;28;20071;-61
2022/06/11 16:46:48;;;;;;;2.22;1.00;;;;;;;;;;8351208;28;20037;-62
2022/06/11 16:59:39;;;;;;;1.77;1.10;;;;;;;;;;8349763;28;20031;-62
2022/06/11 17:03:47;;;;;;;1.55;1.08;;;;;;;;;;8351115;28;20032;-61
2022/06/11 17:07:57;;;;;;;4.15;0.98;;;;;;;;;;8352825;28;20177;-61
2022/06/11 17:12:16;;;;;;;1.25;1.00;;;;;;;;;;8355533;28;20409;-61
2022/06/11 17:16:27;;;;;;;1.80;1.13;;;;;;;;;;8355136;28;20044;-61
2022/06/11 17:20:33;;;;;;;3.13;1.15;;;;;;;;;;8353725;28;20160;-61
2022/06/11 17:24:36;;;;;;;2.92;1.05;;;;;;;;;;8356592;28;20040;-62
2022/06/11 17:28:37;;;;;;;1.20;1.00;;;;;;;;;;8353678;28;20032;-61
2022/06/11 17:32:37;;;;;;;2.67;1.10;;;;;;;;;;8350934;28;20047;-61
2022/06/11 17:36:39;;;;;;;1.90;1.08;;;;;;;;;;8355554;28;20580;-61
2022/06/11 17:40:40;;;;;;;1.55;1.08;;;;;;;;;;8353600;28;20052;-61
2022/06/11 17:44:40;;;;;;;2.88;1.20;;;;;;;;;;8352523;28;20504;-61
2022/06/11 17:48:41;;;;;;;3.13;1.00;;;;;;;;;;8354488;28;20089;-61
2022/06/11 17:52:49;;;;;;;4.47;1.20;;;;;;;;;;8354853;28;20028;-62
2022/06/11 17:56:49;;;;;;;4.20;1.20;;;;;;;;;;8356280;28;20520;-61
2022/06/11 18:00:49;;;;;;;2.35;1.10;;;;;;;;;;8353202;28;20127;-61
2022/06/11 18:04:49;;;;;;;3.15;1.20;;;;;;;;;;8352586;28;20020;-61
2022/06/11 18:08:50;;;;;;;3.35;1.10;;;;;;;;;;8352456;28;20100;-61
2022/06/11 18:12:50;;;;;;;4.15;1.20;;;;;;;;;;8355331;28;20029;-61
2022/06/11 18:16:50;;;;;;;2.42;1.05;;;;;;;;;;8354940;28;20048;-62
2022/06/11 18:20:51;;;;;;;2.38;1.10;;;;;;;;;;8355279;28;20028;-61
2022/06/11 18:29:10;;;;;;;1.92;1.20;;;;;;;;;;8354383;28;20090;-61
2022/06/11 18:33:11;;;;;;;2.58;1.80;;;;;;;;;;8353386;28;20044;-62
2022/06/11 18:37:13;;;;;;;3.30;1.40;;;;;;;;;;8351294;28;20037;-61
2022/06/11 18:41:14;;;;;;;2.03;1.10;;;;;;;;;;8351857;28;20351;-61
2022/06/11 18:45:14;;;;;;;3.63;1.13;;;;;;;;;;8350590;28;20031;-62
2022/06/11 18:49:15;;;;;;;1.90;1.30;;;;;;;;;;8352415;28;20020;-62
2022/06/11 18:53:15;;;;;;;1.30;1.20;;;;;;;;;;8353523;28;20138;-62
2022/06/11 18:57:16;;;;;;;2.13;1.20;;;;;;;;;;8353118;28;20418;-62
2022/06/11 19:01:16;;;;;;;3.40;1.30;;;;;;;;;;8348524;28;20043;-61
2022/06/11 19:05:17;;;;;;;3.13;1.20;;;;;;;;;;8351404;28;20032;-62
2022/06/11 19:09:20;;;;;;;3.33;1.02;;;;;;;;;;8351555;28;20020;-61
2022/06/11 19:13:20;;;;;;;3.20;1.13;;;;;;;;;;8351635;28;20037;-61
2022/06/11 19:17:20;;;;;;;2.28;1.30;;;;;;;;;;8353061;28;20041;-61
2022/06/11 19:21:21;;;;;;;3.75;1.60;;;;;;;;;;8351560;28;20090;-62
2022/06/11 19:25:21;;;;;;;2.38;1.20;;;;;;;;;;8353148;28;20285;-61
2022/06/11 19:29:21;;;;;;;1.43;1.03;;;;;;;;;;8354478;28;20460;-61
2022/06/11 19:33:22;;;;;;;4.05;1.85;;;;;;;;;;8349702;28;20287;-62
2022/06/11 19:37:23;;;;;;;3.38;1.80;;;;;;;;;;8352552;28;20103;-62
2022/06/11 19:41:23;;;;;;;3.03;1.70;;;;;;;;;;8353757;28;20116;-62
2022/06/11 19:45:26;;;;;;;5.75;1.48;;;;;;;;;;8349894;28;20136;-62
2022/06/11 19:49:27;;;;;;;3.88;1.17;;;;;;;;;;8352119;28;20021;-62
2022/06/11 19:53:28;;;;;;;2.58;1.50;;;;;;;;;;8350944;28;20873;-61
2022/06/11 19:57:29;;;;;;;7.15;1.50;;;;;;;;;;8355015;28;20687;-62
2022/06/11 20:01:29;;;;;;;4.45;1.95;;;;;;;;;;8351224;28;20984;-61
2022/06/11 20:05:29;;;;;;;2.90;1.60;;;;;;;;;;8351773;28;20025;-62
2022/06/11 20:09:30;;;;;;;3.83;1.20;;;;;;;;;;8358949;28;20029;-62
2022/06/11 20:13:31;;;;;;;2.40;1.40;;;;;;;;;;8356731;28;20028;-61
2022/06/11 20:17:34;;;;;;;5.18;1.98;;;;;;;;;;8357569;28;20785;-62
2022/06/11 20:21:34;;;;;;;9.65;6.78;;;;;;;;;;8356461;28;20895;-62
2022/06/11 20:25:35;;;;;;;4.75;3.80;;;;;;;;;;8355321;28;20202;-63
2022/06/11 20:29:35;;;;;;;3.65;2.63;;;;;;;;;;8356378;28;20035;-62
2022/06/11 20:33:36;;;;;;;4.83;3.43;;;;;;;;;;8353701;28;20143;-62
2022/06/11 20:37:39;;;;;;;8.00;5.07;;;;;;;;;;8356399;28;20020;-62
2022/06/11 20:41:40;;;;;;;3.75;2.55;;;;;;;;;;8354273;28;20029;-61
2022/06/11 20:45:40;;;;;;;4.43;2.35;;;;;;;;;;8358510;28;20114;-62
2022/06/11 20:49:45;;;;;;;2.83;2.00;;;;;;;;;;8354226;28;20024;-61
2022/06/11 20:53:46;;;;;;;2.90;2.03;;;;;;;;;;8356220;28;20036;-62
2022/06/11 20:57:46;;;;;;;3.25;1.90;;;;;;;;;;8357446;28;20482;-61
2022/06/11 21:01:46;;;;;;;3.00;1.85;;;;;;;;;;8354771;28;20032;-61
2022/06/11 21:05:47;;;;;;;3.20;2.08;;;;;;;;;;8357961;28;20110;-62
2022/06/11 21:09:47;;;;;;;4.43;2.40;;;;;;;;;;8355574;28;20055;-62
2022/06/11 21:13:48;;;;;;;4.70;2.70;;;;;;;;;;8356618;28;20345;-62
2022/06/11 21:17:49;;;;;;;3.88;1.83;;;;;;;;;;8354363;28;20037;-61
2022/06/11 21:21:53;;;;;;;3.75;2.38;;;;;;;;;;8357137;28;20417;-61
2022/06/11 21:25:54;;;;;;;2.05;1.70;;;;;;;;;;8356111;28;20033;-62
2022/06/11 21:29:54;;;;;;;2.95;1.70;;;;;;;;;;8357141;28;20040;-61
2022/06/11 21:33:55;;;;;;;5.47;1.80;;;;;;;;;;8355339;28;20037;-61
2022/06/11 21:37:56;;;;;;;3.47;1.83;;;;;;;;;;8356308;28;20485;-61
2022/06/11 21:41:56;;;;;;;4.50;2.07;;;;;;;;;;8355224;28;20543;-61
2022/06/11 21:45:56;;;;;;;5.13;1.77;;;;;;;;;;8353756;28;20636;-62
2022/06/11 21:49:57;;;;;;;3.92;1.73;;;;;;;;;;8357666;28;20975;-62
2022/06/11 21:53:57;;;;;;;4.10;2.05;;;;;;;;;;8353477;28;20032;-61
2022/06/11 21:57:57;;;;;;;3.38;1.33;;;;;;;;;;8354860;28;20043;-61
2022/06/11 22:01:58;;;;;;;5.78;2.10;;;;;;;;;;8346765;28;20028;-61
2022/06/11 22:05:58;;;;;;;4.57;2.33;;;;;;;;;;8354418;28;20028;-61
2022/06/11 22:09:59;;;;;;;4.07;2.65;;;;;;;;;;8354446;28;20138;-62
2022/06/11 22:13:59;;;;;;;6.38;3.42;;;;;;;;;;8355884;28;20044;-61
2022/06/11 22:17:59;;;;;;;5.13;1.90;;;;;;;;;;8352873;28;20039;-61
2022/06/11 22:22:02;;;;;;;2.30;1.40;;;;;;;;;;8354108;28;20032;-61
2022/06/11 22:26:02;;;;;;;4.00;1.57;;;;;;;;;;8352443;28;20017;-61
2022/06/11 22:30:03;;;;;;;2.60;1.20;;;;;;;;;;8351215;28;20047;-62
2022/06/11 22:34:04;;;;;;;3.67;1.30;;;;;;;;;;8353036;28;20139;-62
2022/06/11 22:38:04;;;;;;;4.50;1.33;;;;;;;;;;8352434;28;20359;-61
2022/06/11 22:42:04;;;;;;;2.27;1.03;;;;;;;;;;8351395;28;20302;-61
2022/06/11 22:46:05;;;;;;;2.42;1.40;;;;;;;;;;8351165;28;20040;-61
2022/06/11 22:50:05;;;;;;;2.33;1.23;;;;;;;;;;8352243;28;20029;-61
2022/06/11 22:54:06;;;;;;;2.42;1.30;;;;;;;;;;8355075;28;20074;-61
2022/06/11 22:58:08;;;;;;;1.73;1.17;;;;;;;;;;8351772;28;20021;-61
2022/06/11 23:02:08;;;;;;;1.65;1.20;;;;;;;;;;8350911;28;20473;-61
2022/06/11 23:06:08;;;;;;;3.50;1.10;;;;;;;;;;8354951;28;20020;-61
2022/06/11 23:10:09;;;;;;;2.75;1.10;;;;;;;;;;8352524;28;20158;-61
2022/06/11 23:14:10;;;;;;;1.63;1.00;;;;;;;;;;8354182;28;20039;-62
2022/06/11 23:18:10;;;;;;;2.15;1.10;;;;;;;;;;8352205;28;20037;-60
2022/06/11 23:22:10;;;;;;;5.55;1.10;;;;;;;;;;8352377;28;20714;-61
2022/06/11 23:26:10;;;;;;;2.63;1.20;;;;;;;;;;8352396;28;20489;-61
2022/06/11 23:30:11;;;;;;;3.38;1.08;;;;;;;;;;8352707;28;20852;-61
2022/06/11 23:34:11;;;;;;;4.47;1.08;;;;;;;;;;8349463;28;20127;-62
2022/06/11 23:38:12;;;;;;;1.90;1.10;;;;;;;;;;8353183;28;20029;-62
2022/06/11 23:42:12;;;;;;;1.73;1.13;;;;;;;;;;8354774;28;20115;-60
2022/06/11 23:46:13;;;;;;;6.40;1.40;;;;;;;;;;8355514;28;20051;-61
2022/06/11 23:50:13;;;;;;;4.43;1.50;;;;;;;;;;8356553;28;20686;-61
2022/06/11 23:54:13;;;;;;;4.05;1.40;;;;;;;;;;8359678;28;20016;-61
2022/06/11 23:58:14;;;;;;;3.60;1.40;;;;;;;;;;8359458;28;20025;-61
